<?xml version="1.0" encoding="UTF-8" standalone="no" ?>
<gpx xmlns="http://www.topografix.com/GPX/1/1" xmlns:xsi="http://www.w3.org/2001/XMLSchema-instance" xsi:schemaLocation="http://www.topografix.com/GPX/1/1 http://www.topografix.com/GPX/1/1/gpx.xsd" version="1.1" creator="VisuGPX - https://www.visugpx.com">
  <metadata>
    <name>14403874-ST GENEST MALIFAUX G2 b</name>
    <desc><![CDATA[Saint Genest Malifaux groupe 2]]></desc>
  </metadata>
  <trk>
    <name><![CDATA[14403874-ST GENEST MALIFAUX G2 b]]></name>
    <extensions>
      <line xmlns="http://www.topografix.com/GPX/gpx_style/0/2">
        <color>0000FF</color>
        <width>4</width>
      </line>
    </extensions>
    <trkseg>
      <trkpt lat="45.33919" lon="4.41771">
        <ele>958</ele>
        <time>2022-03-21T12:02:40Z</time>
      </trkpt>
      <trkpt lat="45.33908" lon="4.41755">
        <ele>958</ele>
        <time>2022-03-21T12:03:01Z</time>
      </trkpt>
      <trkpt lat="45.33902" lon="4.4176">
        <ele>959</ele>
        <time>2022-03-21T12:03:10Z</time>
      </trkpt>
      <trkpt lat="45.33898" lon="4.4176">
        <ele>959</ele>
        <time>2022-03-21T12:03:16Z</time>
      </trkpt>
      <trkpt lat="45.33893" lon="4.41757">
        <ele>959</ele>
        <time>2022-03-21T12:03:23Z</time>
      </trkpt>
      <trkpt lat="45.33867" lon="4.41787">
        <ele>958</ele>
        <time>2022-03-21T12:04:08Z</time>
      </trkpt>
      <trkpt lat="45.33865" lon="4.41797">
        <ele>958</ele>
        <time>2022-03-21T12:04:17Z</time>
      </trkpt>
      <trkpt lat="45.33865" lon="4.41836">
        <ele>955</ele>
        <time>2022-03-21T12:04:54Z</time>
      </trkpt>
      <trkpt lat="45.33862" lon="4.41853">
        <ele>955</ele>
        <time>2022-03-21T12:05:10Z</time>
      </trkpt>
      <trkpt lat="45.33856" lon="4.41872">
        <ele>954</ele>
        <time>2022-03-21T12:05:30Z</time>
      </trkpt>
      <trkpt lat="45.33837" lon="4.41917">
        <ele>950</ele>
        <time>2022-03-21T12:06:19Z</time>
      </trkpt>
      <trkpt lat="45.3383" lon="4.4191">
        <ele>949</ele>
        <time>2022-03-21T12:06:30Z</time>
      </trkpt>
      <trkpt lat="45.3382" lon="4.41911">
        <ele>949</ele>
        <time>2022-03-21T12:06:44Z</time>
      </trkpt>
      <trkpt lat="45.33803" lon="4.41927">
        <ele>947</ele>
        <time>2022-03-21T12:07:11Z</time>
      </trkpt>
      <trkpt lat="45.33788" lon="4.41936">
        <ele>946</ele>
        <time>2022-03-21T12:07:33Z</time>
      </trkpt>
      <trkpt lat="45.33768" lon="4.41944">
        <ele>944</ele>
        <time>2022-03-21T12:08:01Z</time>
      </trkpt>
      <trkpt lat="45.33748" lon="4.41946">
        <ele>943</ele>
        <time>2022-03-21T12:08:27Z</time>
      </trkpt>
      <trkpt lat="45.33725" lon="4.41943">
        <ele>942</ele>
        <time>2022-03-21T12:08:58Z</time>
      </trkpt>
      <trkpt lat="45.33699" lon="4.41944">
        <ele>941</ele>
        <time>2022-03-21T12:09:33Z</time>
      </trkpt>
      <trkpt lat="45.33652" lon="4.4195">
        <ele>940</ele>
        <time>2022-03-21T12:10:36Z</time>
      </trkpt>
      <trkpt lat="45.33637" lon="4.41959">
        <ele>940</ele>
        <time>2022-03-21T12:10:58Z</time>
      </trkpt>
      <trkpt lat="45.3361" lon="4.41986">
        <ele>939</ele>
        <time>2022-03-21T12:11:42Z</time>
      </trkpt>
      <trkpt lat="45.33599" lon="4.41991">
        <ele>939</ele>
        <time>2022-03-21T12:11:57Z</time>
      </trkpt>
      <trkpt lat="45.33562" lon="4.41996">
        <ele>942</ele>
        <time>2022-03-21T12:12:47Z</time>
      </trkpt>
      <trkpt lat="45.33553" lon="4.42005">
        <ele>941</ele>
        <time>2022-03-21T12:13:01Z</time>
      </trkpt>
      <trkpt lat="45.33536" lon="4.42045">
        <ele>939</ele>
        <time>2022-03-21T12:13:45Z</time>
      </trkpt>
      <trkpt lat="45.33518" lon="4.42099">
        <ele>934</ele>
        <time>2022-03-21T12:14:41Z</time>
      </trkpt>
      <trkpt lat="45.33481" lon="4.42164">
        <ele>929</ele>
        <time>2022-03-21T12:16:00Z</time>
      </trkpt>
      <trkpt lat="45.33466" lon="4.42195">
        <ele>928</ele>
        <time>2022-03-21T12:16:35Z</time>
      </trkpt>
      <trkpt lat="45.33437" lon="4.42227">
        <ele>927</ele>
        <time>2022-03-21T12:17:24Z</time>
      </trkpt>
      <trkpt lat="45.33422" lon="4.42228">
        <ele>927</ele>
        <time>2022-03-21T12:17:44Z</time>
      </trkpt>
      <trkpt lat="45.33411" lon="4.4222">
        <ele>927</ele>
        <time>2022-03-21T12:18:00Z</time>
      </trkpt>
      <trkpt lat="45.33378" lon="4.42177">
        <ele>927</ele>
        <time>2022-03-21T12:19:00Z</time>
      </trkpt>
      <trkpt lat="45.33347" lon="4.4215">
        <ele>929</ele>
        <time>2022-03-21T12:19:49Z</time>
      </trkpt>
      <trkpt lat="45.33325" lon="4.42137">
        <ele>931</ele>
        <time>2022-03-21T12:20:20Z</time>
      </trkpt>
      <trkpt lat="45.33258" lon="4.42111">
        <ele>933</ele>
        <time>2022-03-21T12:21:53Z</time>
      </trkpt>
      <trkpt lat="45.33246" lon="4.4211">
        <ele>933</ele>
        <time>2022-03-21T12:22:09Z</time>
      </trkpt>
      <trkpt lat="45.33218" lon="4.42115">
        <ele>933</ele>
        <time>2022-03-21T12:22:47Z</time>
      </trkpt>
      <trkpt lat="45.33153" lon="4.42147">
        <ele>931</ele>
        <time>2022-03-21T12:24:19Z</time>
      </trkpt>
      <trkpt lat="45.33147" lon="4.42156">
        <ele>930</ele>
        <time>2022-03-21T12:24:30Z</time>
      </trkpt>
      <trkpt lat="45.33147" lon="4.42162">
        <ele>928</ele>
        <time>2022-03-21T12:24:36Z</time>
      </trkpt>
      <trkpt lat="45.33071" lon="4.4219">
        <ele>935</ele>
        <time>2022-03-21T12:26:21Z</time>
      </trkpt>
      <trkpt lat="45.33032" lon="4.42214">
        <ele>936</ele>
        <time>2022-03-21T12:27:17Z</time>
      </trkpt>
      <trkpt lat="45.32984" lon="4.42208">
        <ele>941</ele>
        <time>2022-03-21T12:28:22Z</time>
      </trkpt>
      <trkpt lat="45.32963" lon="4.42214">
        <ele>940</ele>
        <time>2022-03-21T12:28:50Z</time>
      </trkpt>
      <trkpt lat="45.3291" lon="4.42197">
        <ele>942</ele>
        <time>2022-03-21T12:30:03Z</time>
      </trkpt>
      <trkpt lat="45.32878" lon="4.42189">
        <ele>940</ele>
        <time>2022-03-21T12:30:46Z</time>
      </trkpt>
      <trkpt lat="45.32846" lon="4.42189">
        <ele>936</ele>
        <time>2022-03-21T12:31:29Z</time>
      </trkpt>
      <trkpt lat="45.32817" lon="4.42176">
        <ele>935</ele>
        <time>2022-03-21T12:32:09Z</time>
      </trkpt>
      <trkpt lat="45.3281" lon="4.42164">
        <ele>935</ele>
        <time>2022-03-21T12:32:24Z</time>
      </trkpt>
      <trkpt lat="45.32806" lon="4.42148">
        <ele>935</ele>
        <time>2022-03-21T12:32:40Z</time>
      </trkpt>
      <trkpt lat="45.3283" lon="4.42093">
        <ele>940</ele>
        <time>2022-03-21T12:33:41Z</time>
      </trkpt>
      <trkpt lat="45.32876" lon="4.42004">
        <ele>939</ele>
        <time>2022-03-21T12:35:24Z</time>
      </trkpt>
      <trkpt lat="45.32907" lon="4.41952">
        <ele>938</ele>
        <time>2022-03-21T12:36:28Z</time>
      </trkpt>
      <trkpt lat="45.32936" lon="4.41909">
        <ele>937</ele>
        <time>2022-03-21T12:37:24Z</time>
      </trkpt>
      <trkpt lat="45.32949" lon="4.41896">
        <ele>938</ele>
        <time>2022-03-21T12:37:45Z</time>
      </trkpt>
      <trkpt lat="45.3299" lon="4.41863">
        <ele>945</ele>
        <time>2022-03-21T12:38:48Z</time>
      </trkpt>
      <trkpt lat="45.32994" lon="4.41856">
        <ele>946</ele>
        <time>2022-03-21T12:38:57Z</time>
      </trkpt>
      <trkpt lat="45.32995" lon="4.41844">
        <ele>946</ele>
        <time>2022-03-21T12:39:08Z</time>
      </trkpt>
      <trkpt lat="45.32994" lon="4.41833">
        <ele>946</ele>
        <time>2022-03-21T12:39:18Z</time>
      </trkpt>
      <trkpt lat="45.32986" lon="4.41808">
        <ele>941</ele>
        <time>2022-03-21T12:39:44Z</time>
      </trkpt>
      <trkpt lat="45.32986" lon="4.41797">
        <ele>940</ele>
        <time>2022-03-21T12:39:55Z</time>
      </trkpt>
      <trkpt lat="45.3301" lon="4.41735">
        <ele>938</ele>
        <time>2022-03-21T12:41:01Z</time>
      </trkpt>
      <trkpt lat="45.33027" lon="4.41698">
        <ele>938</ele>
        <time>2022-03-21T12:41:42Z</time>
      </trkpt>
      <trkpt lat="45.33035" lon="4.4169">
        <ele>938</ele>
        <time>2022-03-21T12:41:55Z</time>
      </trkpt>
      <trkpt lat="45.33063" lon="4.41667">
        <ele>938</ele>
        <time>2022-03-21T12:42:39Z</time>
      </trkpt>
      <trkpt lat="45.33155" lon="4.41615">
        <ele>941</ele>
        <time>2022-03-21T12:44:51Z</time>
      </trkpt>
      <trkpt lat="45.33169" lon="4.41604">
        <ele>941</ele>
        <time>2022-03-21T12:45:12Z</time>
      </trkpt>
      <trkpt lat="45.33187" lon="4.4158">
        <ele>940</ele>
        <time>2022-03-21T12:45:45Z</time>
      </trkpt>
      <trkpt lat="45.33191" lon="4.41567">
        <ele>940</ele>
        <time>2022-03-21T12:45:58Z</time>
      </trkpt>
      <trkpt lat="45.3319" lon="4.41557">
        <ele>940</ele>
        <time>2022-03-21T12:46:08Z</time>
      </trkpt>
      <trkpt lat="45.33187" lon="4.41546">
        <ele>940</ele>
        <time>2022-03-21T12:46:19Z</time>
      </trkpt>
      <trkpt lat="45.33182" lon="4.4154">
        <ele>939</ele>
        <time>2022-03-21T12:46:28Z</time>
      </trkpt>
      <trkpt lat="45.3316" lon="4.41534">
        <ele>939</ele>
        <time>2022-03-21T12:46:57Z</time>
      </trkpt>
      <trkpt lat="45.33152" lon="4.41528">
        <ele>938</ele>
        <time>2022-03-21T12:47:09Z</time>
      </trkpt>
      <trkpt lat="45.33145" lon="4.41518">
        <ele>938</ele>
        <time>2022-03-21T12:47:23Z</time>
      </trkpt>
      <trkpt lat="45.33141" lon="4.4151">
        <ele>937</ele>
        <time>2022-03-21T12:47:32Z</time>
      </trkpt>
      <trkpt lat="45.33138" lon="4.41497">
        <ele>937</ele>
        <time>2022-03-21T12:47:45Z</time>
      </trkpt>
      <trkpt lat="45.33137" lon="4.41466">
        <ele>936</ele>
        <time>2022-03-21T12:48:14Z</time>
      </trkpt>
      <trkpt lat="45.3314" lon="4.41453">
        <ele>935</ele>
        <time>2022-03-21T12:48:27Z</time>
      </trkpt>
      <trkpt lat="45.33149" lon="4.41433">
        <ele>935</ele>
        <time>2022-03-21T12:48:49Z</time>
      </trkpt>
      <trkpt lat="45.33152" lon="4.41419">
        <ele>935</ele>
        <time>2022-03-21T12:49:03Z</time>
      </trkpt>
      <trkpt lat="45.33154" lon="4.41401">
        <ele>935</ele>
        <time>2022-03-21T12:49:20Z</time>
      </trkpt>
      <trkpt lat="45.33154" lon="4.41382">
        <ele>935</ele>
        <time>2022-03-21T12:49:38Z</time>
      </trkpt>
      <trkpt lat="45.33147" lon="4.41372">
        <ele>935</ele>
        <time>2022-03-21T12:49:51Z</time>
      </trkpt>
      <trkpt lat="45.33134" lon="4.41362">
        <ele>934</ele>
        <time>2022-03-21T12:50:11Z</time>
      </trkpt>
      <trkpt lat="45.33129" lon="4.41354">
        <ele>934</ele>
        <time>2022-03-21T12:50:21Z</time>
      </trkpt>
      <trkpt lat="45.33114" lon="4.41309">
        <ele>932</ele>
        <time>2022-03-21T12:51:07Z</time>
      </trkpt>
      <trkpt lat="45.33111" lon="4.41278">
        <ele>931</ele>
        <time>2022-03-21T12:51:37Z</time>
      </trkpt>
      <trkpt lat="45.33113" lon="4.41262">
        <ele>931</ele>
        <time>2022-03-21T12:51:52Z</time>
      </trkpt>
      <trkpt lat="45.33119" lon="4.4123">
        <ele>931</ele>
        <time>2022-03-21T12:52:23Z</time>
      </trkpt>
      <trkpt lat="45.33136" lon="4.41172">
        <ele>930</ele>
        <time>2022-03-21T12:53:22Z</time>
      </trkpt>
      <trkpt lat="45.33142" lon="4.41155">
        <ele>930</ele>
        <time>2022-03-21T12:53:40Z</time>
      </trkpt>
      <trkpt lat="45.33174" lon="4.41121">
        <ele>930</ele>
        <time>2022-03-21T12:54:33Z</time>
      </trkpt>
      <trkpt lat="45.33199" lon="4.4108">
        <ele>929</ele>
        <time>2022-03-21T12:55:24Z</time>
      </trkpt>
      <trkpt lat="45.33207" lon="4.41071">
        <ele>929</ele>
        <time>2022-03-21T12:55:38Z</time>
      </trkpt>
      <trkpt lat="45.33237" lon="4.41068">
        <ele>931</ele>
        <time>2022-03-21T12:56:18Z</time>
      </trkpt>
      <trkpt lat="45.33261" lon="4.41075">
        <ele>933</ele>
        <time>2022-03-21T12:56:51Z</time>
      </trkpt>
      <trkpt lat="45.33271" lon="4.41081">
        <ele>934</ele>
        <time>2022-03-21T12:57:05Z</time>
      </trkpt>
      <trkpt lat="45.33291" lon="4.41109">
        <ele>937</ele>
        <time>2022-03-21T12:57:42Z</time>
      </trkpt>
      <trkpt lat="45.33297" lon="4.41112">
        <ele>937</ele>
        <time>2022-03-21T12:57:51Z</time>
      </trkpt>
      <trkpt lat="45.33304" lon="4.41112">
        <ele>937</ele>
        <time>2022-03-21T12:58:00Z</time>
      </trkpt>
      <trkpt lat="45.33308" lon="4.41107">
        <ele>937</ele>
        <time>2022-03-21T12:58:07Z</time>
      </trkpt>
      <trkpt lat="45.33312" lon="4.41099">
        <ele>938</ele>
        <time>2022-03-21T12:58:17Z</time>
      </trkpt>
      <trkpt lat="45.33314" lon="4.41089">
        <ele>937</ele>
        <time>2022-03-21T12:58:26Z</time>
      </trkpt>
      <trkpt lat="45.33309" lon="4.41051">
        <ele>939</ele>
        <time>2022-03-21T12:59:03Z</time>
      </trkpt>
      <trkpt lat="45.33302" lon="4.41032">
        <ele>939</ele>
        <time>2022-03-21T12:59:23Z</time>
      </trkpt>
      <trkpt lat="45.33288" lon="4.41003">
        <ele>938</ele>
        <time>2022-03-21T12:59:56Z</time>
      </trkpt>
      <trkpt lat="45.33261" lon="4.40976">
        <ele>933</ele>
        <time>2022-03-21T13:00:40Z</time>
      </trkpt>
      <trkpt lat="45.33256" lon="4.40967">
        <ele>932</ele>
        <time>2022-03-21T13:00:51Z</time>
      </trkpt>
      <trkpt lat="45.33251" lon="4.40934">
        <ele>930</ele>
        <time>2022-03-21T13:01:22Z</time>
      </trkpt>
      <trkpt lat="45.33251" lon="4.4091">
        <ele>930</ele>
        <time>2022-03-21T13:01:45Z</time>
      </trkpt>
      <trkpt lat="45.33255" lon="4.40886">
        <ele>930</ele>
        <time>2022-03-21T13:02:08Z</time>
      </trkpt>
      <trkpt lat="45.33266" lon="4.40842">
        <ele>932</ele>
        <time>2022-03-21T13:02:52Z</time>
      </trkpt>
      <trkpt lat="45.33267" lon="4.40824">
        <ele>932</ele>
        <time>2022-03-21T13:03:09Z</time>
      </trkpt>
      <trkpt lat="45.33265" lon="4.40784">
        <ele>933</ele>
        <time>2022-03-21T13:03:46Z</time>
      </trkpt>
      <trkpt lat="45.33264" lon="4.40773">
        <ele>933</ele>
        <time>2022-03-21T13:03:57Z</time>
      </trkpt>
      <trkpt lat="45.33259" lon="4.4076">
        <ele>932</ele>
        <time>2022-03-21T13:04:11Z</time>
      </trkpt>
      <trkpt lat="45.33232" lon="4.40736">
        <ele>928</ele>
        <time>2022-03-21T13:04:53Z</time>
      </trkpt>
      <trkpt lat="45.33227" lon="4.40728">
        <ele>927</ele>
        <time>2022-03-21T13:05:03Z</time>
      </trkpt>
      <trkpt lat="45.33224" lon="4.40717">
        <ele>926</ele>
        <time>2022-03-21T13:05:14Z</time>
      </trkpt>
      <trkpt lat="45.33226" lon="4.40681">
        <ele>926</ele>
        <time>2022-03-21T13:05:48Z</time>
      </trkpt>
      <trkpt lat="45.33231" lon="4.40636">
        <ele>929</ele>
        <time>2022-03-21T13:06:31Z</time>
      </trkpt>
      <trkpt lat="45.3323" lon="4.40626">
        <ele>929</ele>
        <time>2022-03-21T13:06:40Z</time>
      </trkpt>
      <trkpt lat="45.3322" lon="4.40608">
        <ele>928</ele>
        <time>2022-03-21T13:07:02Z</time>
      </trkpt>
      <trkpt lat="45.33178" lon="4.40488">
        <ele>928</ele>
        <time>2022-03-21T13:09:07Z</time>
      </trkpt>
      <trkpt lat="45.33167" lon="4.40467">
        <ele>927</ele>
        <time>2022-03-21T13:09:32Z</time>
      </trkpt>
      <trkpt lat="45.33144" lon="4.40444">
        <ele>928</ele>
        <time>2022-03-21T13:10:10Z</time>
      </trkpt>
      <trkpt lat="45.33125" lon="4.40416">
        <ele>926</ele>
        <time>2022-03-21T13:10:46Z</time>
      </trkpt>
      <trkpt lat="45.33118" lon="4.40416">
        <ele>925</ele>
        <time>2022-03-21T13:10:55Z</time>
      </trkpt>
      <trkpt lat="45.3311" lon="4.40423">
        <ele>924</ele>
        <time>2022-03-21T13:11:08Z</time>
      </trkpt>
      <trkpt lat="45.33108" lon="4.40437">
        <ele>925</ele>
        <time>2022-03-21T13:11:21Z</time>
      </trkpt>
      <trkpt lat="45.33108" lon="4.4046">
        <ele>927</ele>
        <time>2022-03-21T13:11:43Z</time>
      </trkpt>
      <trkpt lat="45.33116" lon="4.40523">
        <ele>931</ele>
        <time>2022-03-21T13:12:43Z</time>
      </trkpt>
      <trkpt lat="45.33118" lon="4.40569">
        <ele>933</ele>
        <time>2022-03-21T13:13:26Z</time>
      </trkpt>
      <trkpt lat="45.33112" lon="4.4061">
        <ele>935</ele>
        <time>2022-03-21T13:14:06Z</time>
      </trkpt>
      <trkpt lat="45.33101" lon="4.40636">
        <ele>938</ele>
        <time>2022-03-21T13:14:34Z</time>
      </trkpt>
      <trkpt lat="45.33078" lon="4.40668">
        <ele>945</ele>
        <time>2022-03-21T13:15:17Z</time>
      </trkpt>
      <trkpt lat="45.33071" lon="4.40693">
        <ele>947</ele>
        <time>2022-03-21T13:15:42Z</time>
      </trkpt>
      <trkpt lat="45.33065" lon="4.40749">
        <ele>947</ele>
        <time>2022-03-21T13:16:35Z</time>
      </trkpt>
      <trkpt lat="45.33056" lon="4.40944">
        <ele>941</ele>
        <time>2022-03-21T13:19:39Z</time>
      </trkpt>
      <trkpt lat="45.33051" lon="4.40967">
        <ele>939</ele>
        <time>2022-03-21T13:20:01Z</time>
      </trkpt>
      <trkpt lat="45.3303" lon="4.40994">
        <ele>941</ele>
        <time>2022-03-21T13:20:39Z</time>
      </trkpt>
      <trkpt lat="45.33003" lon="4.41018">
        <ele>945</ele>
        <time>2022-03-21T13:21:21Z</time>
      </trkpt>
      <trkpt lat="45.32973" lon="4.4103">
        <ele>950</ele>
        <time>2022-03-21T13:22:03Z</time>
      </trkpt>
      <trkpt lat="45.32967" lon="4.41047">
        <ele>950</ele>
        <time>2022-03-21T13:22:21Z</time>
      </trkpt>
      <trkpt lat="45.32972" lon="4.41067">
        <ele>947</ele>
        <time>2022-03-21T13:22:41Z</time>
      </trkpt>
      <trkpt lat="45.32988" lon="4.41116">
        <ele>938</ele>
        <time>2022-03-21T13:23:32Z</time>
      </trkpt>
      <trkpt lat="45.32965" lon="4.41165">
        <ele>941</ele>
        <time>2022-03-21T13:24:27Z</time>
      </trkpt>
      <trkpt lat="45.32939" lon="4.41191">
        <ele>942</ele>
        <time>2022-03-21T13:25:09Z</time>
      </trkpt>
      <trkpt lat="45.32891" lon="4.41219">
        <ele>947</ele>
        <time>2022-03-21T13:26:18Z</time>
      </trkpt>
      <trkpt lat="45.32867" lon="4.41248">
        <ele>947</ele>
        <time>2022-03-21T13:27:00Z</time>
      </trkpt>
      <trkpt lat="45.32832" lon="4.41315">
        <ele>942</ele>
        <time>2022-03-21T13:28:19Z</time>
      </trkpt>
      <trkpt lat="45.32811" lon="4.41372">
        <ele>941</ele>
        <time>2022-03-21T13:29:19Z</time>
      </trkpt>
      <trkpt lat="45.32772" lon="4.41514">
        <ele>944</ele>
        <time>2022-03-21T13:31:42Z</time>
      </trkpt>
      <trkpt lat="45.32761" lon="4.41548">
        <ele>945</ele>
        <time>2022-03-21T13:32:17Z</time>
      </trkpt>
      <trkpt lat="45.32738" lon="4.41599">
        <ele>944</ele>
        <time>2022-03-21T13:33:14Z</time>
      </trkpt>
      <trkpt lat="45.32708" lon="4.41637">
        <ele>945</ele>
        <time>2022-03-21T13:34:08Z</time>
      </trkpt>
      <trkpt lat="45.32697" lon="4.41658">
        <ele>946</ele>
        <time>2022-03-21T13:34:32Z</time>
      </trkpt>
      <trkpt lat="45.32694" lon="4.4168">
        <ele>946</ele>
        <time>2022-03-21T13:34:53Z</time>
      </trkpt>
      <trkpt lat="45.32696" lon="4.41708">
        <ele>944</ele>
        <time>2022-03-21T13:35:20Z</time>
      </trkpt>
      <trkpt lat="45.32692" lon="4.41732">
        <ele>944</ele>
        <time>2022-03-21T13:35:43Z</time>
      </trkpt>
      <trkpt lat="45.32663" lon="4.41781">
        <ele>948</ele>
        <time>2022-03-21T13:36:43Z</time>
      </trkpt>
      <trkpt lat="45.3266" lon="4.41791">
        <ele>947</ele>
        <time>2022-03-21T13:36:53Z</time>
      </trkpt>
      <trkpt lat="45.32666" lon="4.41822">
        <ele>943</ele>
        <time>2022-03-21T13:37:23Z</time>
      </trkpt>
      <trkpt lat="45.32671" lon="4.4184">
        <ele>939</ele>
        <time>2022-03-21T13:37:42Z</time>
      </trkpt>
      <trkpt lat="45.32674" lon="4.41869">
        <ele>934</ele>
        <time>2022-03-21T13:38:09Z</time>
      </trkpt>
      <trkpt lat="45.3267" lon="4.41879">
        <ele>933</ele>
        <time>2022-03-21T13:38:20Z</time>
      </trkpt>
      <trkpt lat="45.32658" lon="4.41889">
        <ele>934</ele>
        <time>2022-03-21T13:38:38Z</time>
      </trkpt>
      <trkpt lat="45.32606" lon="4.41914">
        <ele>941</ele>
        <time>2022-03-21T13:39:52Z</time>
      </trkpt>
      <trkpt lat="45.32582" lon="4.41931">
        <ele>943</ele>
        <time>2022-03-21T13:40:27Z</time>
      </trkpt>
      <trkpt lat="45.32565" lon="4.41948">
        <ele>942</ele>
        <time>2022-03-21T13:40:55Z</time>
      </trkpt>
      <trkpt lat="45.32543" lon="4.41983">
        <ele>938</ele>
        <time>2022-03-21T13:41:39Z</time>
      </trkpt>
      <trkpt lat="45.32537" lon="4.42014">
        <ele>935</ele>
        <time>2022-03-21T13:42:09Z</time>
      </trkpt>
      <trkpt lat="45.32537" lon="4.42054">
        <ele>933</ele>
        <time>2022-03-21T13:42:47Z</time>
      </trkpt>
      <trkpt lat="45.32544" lon="4.42064">
        <ele>932</ele>
        <time>2022-03-21T13:43:00Z</time>
      </trkpt>
      <trkpt lat="45.32563" lon="4.42064">
        <ele>930</ele>
        <time>2022-03-21T13:43:25Z</time>
      </trkpt>
      <trkpt lat="45.32602" lon="4.4205">
        <ele>928</ele>
        <time>2022-03-21T13:44:19Z</time>
      </trkpt>
      <trkpt lat="45.32626" lon="4.4207">
        <ele>926</ele>
        <time>2022-03-21T13:44:56Z</time>
      </trkpt>
      <trkpt lat="45.32639" lon="4.42111">
        <ele>927</ele>
        <time>2022-03-21T13:45:38Z</time>
      </trkpt>
      <trkpt lat="45.32631" lon="4.4216">
        <ele>930</ele>
        <time>2022-03-21T13:46:26Z</time>
      </trkpt>
      <trkpt lat="45.32605" lon="4.42246">
        <ele>931</ele>
        <time>2022-03-21T13:47:53Z</time>
      </trkpt>
      <trkpt lat="45.32598" lon="4.42287">
        <ele>931</ele>
        <time>2022-03-21T13:48:33Z</time>
      </trkpt>
      <trkpt lat="45.32606" lon="4.4232">
        <ele>929</ele>
        <time>2022-03-21T13:49:06Z</time>
      </trkpt>
      <trkpt lat="45.32623" lon="4.42332">
        <ele>927</ele>
        <time>2022-03-21T13:49:31Z</time>
      </trkpt>
      <trkpt lat="45.32638" lon="4.42331">
        <ele>926</ele>
        <time>2022-03-21T13:49:51Z</time>
      </trkpt>
      <trkpt lat="45.32659" lon="4.42341">
        <ele>925</ele>
        <time>2022-03-21T13:50:21Z</time>
      </trkpt>
      <trkpt lat="45.32671" lon="4.42364">
        <ele>925</ele>
        <time>2022-03-21T13:50:48Z</time>
      </trkpt>
      <trkpt lat="45.32687" lon="4.42383">
        <ele>925</ele>
        <time>2022-03-21T13:51:15Z</time>
      </trkpt>
      <trkpt lat="45.32715" lon="4.42392">
        <ele>924</ele>
        <time>2022-03-21T13:51:54Z</time>
      </trkpt>
      <trkpt lat="45.32724" lon="4.42417">
        <ele>925</ele>
        <time>2022-03-21T13:52:20Z</time>
      </trkpt>
      <trkpt lat="45.32696" lon="4.42422">
        <ele>927</ele>
        <time>2022-03-21T13:52:58Z</time>
      </trkpt>
      <trkpt lat="45.3269" lon="4.4242">
        <ele>927</ele>
        <time>2022-03-21T13:53:06Z</time>
      </trkpt>
      <trkpt lat="45.32696" lon="4.42422">
        <ele>927</ele>
        <time>2022-03-21T13:53:14Z</time>
      </trkpt>
      <trkpt lat="45.32771" lon="4.42407">
        <ele>923</ele>
        <time>2022-03-21T13:54:55Z</time>
      </trkpt>
      <trkpt lat="45.32856" lon="4.42449">
        <ele>924</ele>
        <time>2022-03-21T13:56:55Z</time>
      </trkpt>
      <trkpt lat="45.32851" lon="4.4249">
        <ele>926</ele>
        <time>2022-03-21T13:57:34Z</time>
      </trkpt>
      <trkpt lat="45.32856" lon="4.42506">
        <ele>927</ele>
        <time>2022-03-21T13:57:51Z</time>
      </trkpt>
      <trkpt lat="45.32901" lon="4.42564">
        <ele>933</ele>
        <time>2022-03-21T13:59:12Z</time>
      </trkpt>
      <trkpt lat="45.32901" lon="4.42593">
        <ele>936</ele>
        <time>2022-03-21T13:59:39Z</time>
      </trkpt>
      <trkpt lat="45.32893" lon="4.42609">
        <ele>937</ele>
        <time>2022-03-21T13:59:57Z</time>
      </trkpt>
      <trkpt lat="45.32871" lon="4.42634">
        <ele>940</ele>
        <time>2022-03-21T14:00:35Z</time>
      </trkpt>
      <trkpt lat="45.32844" lon="4.42678">
        <ele>946</ele>
        <time>2022-03-21T14:01:30Z</time>
      </trkpt>
      <trkpt lat="45.32811" lon="4.42748">
        <ele>957</ele>
        <time>2022-03-21T14:02:49Z</time>
      </trkpt>
      <trkpt lat="45.32761" lon="4.42799">
        <ele>967</ele>
        <time>2022-03-21T14:04:11Z</time>
      </trkpt>
      <trkpt lat="45.32732" lon="4.42816">
        <ele>970</ele>
        <time>2022-03-21T14:04:53Z</time>
      </trkpt>
      <trkpt lat="45.3271" lon="4.42852">
        <ele>973</ele>
        <time>2022-03-21T14:05:38Z</time>
      </trkpt>
      <trkpt lat="45.32714" lon="4.42856">
        <ele>974</ele>
        <time>2022-03-21T14:05:44Z</time>
      </trkpt>
      <trkpt lat="45.3272" lon="4.42885">
        <ele>974</ele>
        <time>2022-03-21T14:06:13Z</time>
      </trkpt>
      <trkpt lat="45.32721" lon="4.42901">
        <ele>975</ele>
        <time>2022-03-21T14:06:28Z</time>
      </trkpt>
      <trkpt lat="45.32727" lon="4.42909">
        <ele>975</ele>
        <time>2022-03-21T14:06:39Z</time>
      </trkpt>
      <trkpt lat="45.32721" lon="4.42901">
        <ele>975</ele>
        <time>2022-03-21T14:06:50Z</time>
      </trkpt>
      <trkpt lat="45.32697" lon="4.42924">
        <ele>978</ele>
        <time>2022-03-21T14:07:28Z</time>
      </trkpt>
      <trkpt lat="45.32679" lon="4.42962">
        <ele>980</ele>
        <time>2022-03-21T14:08:11Z</time>
      </trkpt>
      <trkpt lat="45.32637" lon="4.42972">
        <ele>983</ele>
        <time>2022-03-21T14:09:08Z</time>
      </trkpt>
      <trkpt lat="45.32615" lon="4.42982">
        <ele>984</ele>
        <time>2022-03-21T14:09:39Z</time>
      </trkpt>
      <trkpt lat="45.32589" lon="4.43">
        <ele>987</ele>
        <time>2022-03-21T14:10:17Z</time>
      </trkpt>
      <trkpt lat="45.32553" lon="4.43032">
        <ele>987</ele>
        <time>2022-03-21T14:11:14Z</time>
      </trkpt>
      <trkpt lat="45.32535" lon="4.43051">
        <ele>986</ele>
        <time>2022-03-21T14:11:44Z</time>
      </trkpt>
      <trkpt lat="45.32512" lon="4.43087">
        <ele>987</ele>
        <time>2022-03-21T14:12:30Z</time>
      </trkpt>
      <trkpt lat="45.32505" lon="4.43109">
        <ele>989</ele>
        <time>2022-03-21T14:12:52Z</time>
      </trkpt>
      <trkpt lat="45.32494" lon="4.43134">
        <ele>991</ele>
        <time>2022-03-21T14:13:20Z</time>
      </trkpt>
      <trkpt lat="45.32486" lon="4.4315">
        <ele>993</ele>
        <time>2022-03-21T14:13:38Z</time>
      </trkpt>
      <trkpt lat="45.32473" lon="4.43169">
        <ele>995</ele>
        <time>2022-03-21T14:14:03Z</time>
      </trkpt>
      <trkpt lat="45.32435" lon="4.43218">
        <ele>1002</ele>
        <time>2022-03-21T14:15:12Z</time>
      </trkpt>
      <trkpt lat="45.32417" lon="4.43231">
        <ele>1003</ele>
        <time>2022-03-21T14:15:39Z</time>
      </trkpt>
      <trkpt lat="45.32407" lon="4.43229">
        <ele>1005</ele>
        <time>2022-03-21T14:15:52Z</time>
      </trkpt>
      <trkpt lat="45.32398" lon="4.43221">
        <ele>1006</ele>
        <time>2022-03-21T14:16:06Z</time>
      </trkpt>
      <trkpt lat="45.32372" lon="4.43189">
        <ele>1008</ele>
        <time>2022-03-21T14:16:52Z</time>
      </trkpt>
      <trkpt lat="45.32366" lon="4.43178">
        <ele>1008</ele>
        <time>2022-03-21T14:17:05Z</time>
      </trkpt>
      <trkpt lat="45.32341" lon="4.43157">
        <ele>1011</ele>
        <time>2022-03-21T14:17:44Z</time>
      </trkpt>
      <trkpt lat="45.32338" lon="4.4315">
        <ele>1010</ele>
        <time>2022-03-21T14:17:52Z</time>
      </trkpt>
      <trkpt lat="45.32328" lon="4.43152">
        <ele>1012</ele>
        <time>2022-03-21T14:18:05Z</time>
      </trkpt>
      <trkpt lat="45.32324" lon="4.43161">
        <ele>1014</ele>
        <time>2022-03-21T14:18:15Z</time>
      </trkpt>
      <trkpt lat="45.32328" lon="4.43188">
        <ele>1016</ele>
        <time>2022-03-21T14:18:41Z</time>
      </trkpt>
      <trkpt lat="45.32314" lon="4.43212">
        <ele>1022</ele>
        <time>2022-03-21T14:19:10Z</time>
      </trkpt>
      <trkpt lat="45.32304" lon="4.43236">
        <ele>1027</ele>
        <time>2022-03-21T14:19:36Z</time>
      </trkpt>
      <trkpt lat="45.32292" lon="4.43282">
        <ele>1033</ele>
        <time>2022-03-21T14:20:22Z</time>
      </trkpt>
      <trkpt lat="45.32285" lon="4.43292">
        <ele>1035</ele>
        <time>2022-03-21T14:20:36Z</time>
      </trkpt>
      <trkpt lat="45.32286" lon="4.43322">
        <ele>1037</ele>
        <time>2022-03-21T14:21:04Z</time>
      </trkpt>
      <trkpt lat="45.32279" lon="4.4336">
        <ele>1040</ele>
        <time>2022-03-21T14:21:41Z</time>
      </trkpt>
      <trkpt lat="45.32272" lon="4.43394">
        <ele>1042</ele>
        <time>2022-03-21T14:22:14Z</time>
      </trkpt>
      <trkpt lat="45.32266" lon="4.43415">
        <ele>1044</ele>
        <time>2022-03-21T14:22:35Z</time>
      </trkpt>
      <trkpt lat="45.32265" lon="4.43426">
        <ele>1045</ele>
        <time>2022-03-21T14:22:46Z</time>
      </trkpt>
      <trkpt lat="45.32266" lon="4.4343">
        <ele>1044</ele>
        <time>2022-03-21T14:22:50Z</time>
      </trkpt>
      <trkpt lat="45.32258" lon="4.43443">
        <ele>1046</ele>
        <time>2022-03-21T14:23:06Z</time>
      </trkpt>
      <trkpt lat="45.32239" lon="4.43444">
        <ele>1050</ele>
        <time>2022-03-21T14:23:31Z</time>
      </trkpt>
      <trkpt lat="45.32233" lon="4.43442">
        <ele>1051</ele>
        <time>2022-03-21T14:23:39Z</time>
      </trkpt>
      <trkpt lat="45.32225" lon="4.43443">
        <ele>1053</ele>
        <time>2022-03-21T14:23:50Z</time>
      </trkpt>
      <trkpt lat="45.32216" lon="4.43441">
        <ele>1055</ele>
        <time>2022-03-21T14:24:02Z</time>
      </trkpt>
      <trkpt lat="45.32195" lon="4.43425">
        <ele>1059</ele>
        <time>2022-03-21T14:24:34Z</time>
      </trkpt>
      <trkpt lat="45.32177" lon="4.43424">
        <ele>1062</ele>
        <time>2022-03-21T14:24:58Z</time>
      </trkpt>
      <trkpt lat="45.32163" lon="4.43428">
        <ele>1065</ele>
        <time>2022-03-21T14:25:17Z</time>
      </trkpt>
      <trkpt lat="45.32153" lon="4.43431">
        <ele>1066</ele>
        <time>2022-03-21T14:25:31Z</time>
      </trkpt>
      <trkpt lat="45.32138" lon="4.43443">
        <ele>1068</ele>
        <time>2022-03-21T14:25:54Z</time>
      </trkpt>
      <trkpt lat="45.32106" lon="4.43453">
        <ele>1073</ele>
        <time>2022-03-21T14:26:38Z</time>
      </trkpt>
      <trkpt lat="45.32084" lon="4.43463">
        <ele>1076</ele>
        <time>2022-03-21T14:27:08Z</time>
      </trkpt>
      <trkpt lat="45.3207" lon="4.43493">
        <ele>1078</ele>
        <time>2022-03-21T14:27:42Z</time>
      </trkpt>
      <trkpt lat="45.32062" lon="4.43501">
        <ele>1080</ele>
        <time>2022-03-21T14:27:55Z</time>
      </trkpt>
      <trkpt lat="45.32041" lon="4.43511">
        <ele>1082</ele>
        <time>2022-03-21T14:28:25Z</time>
      </trkpt>
      <trkpt lat="45.32031" lon="4.43519">
        <ele>1083</ele>
        <time>2022-03-21T14:28:40Z</time>
      </trkpt>
      <trkpt lat="45.31984" lon="4.43531">
        <ele>1087</ele>
        <time>2022-03-21T14:29:44Z</time>
      </trkpt>
      <trkpt lat="45.31974" lon="4.43538">
        <ele>1088</ele>
        <time>2022-03-21T14:29:59Z</time>
      </trkpt>
      <trkpt lat="45.31966" lon="4.4354">
        <ele>1088</ele>
        <time>2022-03-21T14:30:09Z</time>
      </trkpt>
      <trkpt lat="45.31922" lon="4.43533">
        <ele>1091</ele>
        <time>2022-03-21T14:31:09Z</time>
      </trkpt>
      <trkpt lat="45.31913" lon="4.43539">
        <ele>1092</ele>
        <time>2022-03-21T14:31:22Z</time>
      </trkpt>
      <trkpt lat="45.31898" lon="4.43538">
        <ele>1091</ele>
        <time>2022-03-21T14:31:42Z</time>
      </trkpt>
      <trkpt lat="45.31882" lon="4.43542">
        <ele>1091</ele>
        <time>2022-03-21T14:32:04Z</time>
      </trkpt>
      <trkpt lat="45.31867" lon="4.4354">
        <ele>1090</ele>
        <time>2022-03-21T14:32:24Z</time>
      </trkpt>
      <trkpt lat="45.31833" lon="4.43541">
        <ele>1089</ele>
        <time>2022-03-21T14:33:09Z</time>
      </trkpt>
      <trkpt lat="45.31799" lon="4.43564">
        <ele>1089</ele>
        <time>2022-03-21T14:33:59Z</time>
      </trkpt>
      <trkpt lat="45.3177" lon="4.43586">
        <ele>1089</ele>
        <time>2022-03-21T14:34:43Z</time>
      </trkpt>
      <trkpt lat="45.31692" lon="4.4363">
        <ele>1079</ele>
        <time>2022-03-21T14:36:35Z</time>
      </trkpt>
      <trkpt lat="45.31683" lon="4.43647">
        <ele>1079</ele>
        <time>2022-03-21T14:36:55Z</time>
      </trkpt>
      <trkpt lat="45.31646" lon="4.43688">
        <ele>1081</ele>
        <time>2022-03-21T14:37:58Z</time>
      </trkpt>
      <trkpt lat="45.3164" lon="4.43702">
        <ele>1082</ele>
        <time>2022-03-21T14:38:13Z</time>
      </trkpt>
      <trkpt lat="45.31622" lon="4.43723">
        <ele>1086</ele>
        <time>2022-03-21T14:38:44Z</time>
      </trkpt>
      <trkpt lat="45.31619" lon="4.43785">
        <ele>1089</ele>
        <time>2022-03-21T14:39:42Z</time>
      </trkpt>
      <trkpt lat="45.31619" lon="4.43815">
        <ele>1091</ele>
        <time>2022-03-21T14:40:11Z</time>
      </trkpt>
      <trkpt lat="45.31633" lon="4.43874">
        <ele>1095</ele>
        <time>2022-03-21T14:41:09Z</time>
      </trkpt>
      <trkpt lat="45.31645" lon="4.43915">
        <ele>1099</ele>
        <time>2022-03-21T14:41:51Z</time>
      </trkpt>
      <trkpt lat="45.31675" lon="4.43976">
        <ele>1101</ele>
        <time>2022-03-21T14:43:01Z</time>
      </trkpt>
      <trkpt lat="45.31734" lon="4.44075">
        <ele>1106</ele>
        <time>2022-03-21T14:45:02Z</time>
      </trkpt>
      <trkpt lat="45.31769" lon="4.44207">
        <ele>1110</ele>
        <time>2022-03-21T14:47:15Z</time>
      </trkpt>
      <trkpt lat="45.31825" lon="4.44382">
        <ele>1114</ele>
        <time>2022-03-21T14:50:15Z</time>
      </trkpt>
      <trkpt lat="45.3189" lon="4.44571">
        <ele>1117</ele>
        <time>2022-03-21T14:53:33Z</time>
      </trkpt>
      <trkpt lat="45.31903" lon="4.44614">
        <ele>1119</ele>
        <time>2022-03-21T14:54:16Z</time>
      </trkpt>
      <trkpt lat="45.31897" lon="4.44649">
        <ele>1122</ele>
        <time>2022-03-21T14:54:50Z</time>
      </trkpt>
      <trkpt lat="45.31903" lon="4.44673">
        <ele>1123</ele>
        <time>2022-03-21T14:55:14Z</time>
      </trkpt>
      <trkpt lat="45.31908" lon="4.44705">
        <ele>1126</ele>
        <time>2022-03-21T14:55:45Z</time>
      </trkpt>
      <trkpt lat="45.31918" lon="4.44744">
        <ele>1128</ele>
        <time>2022-03-21T14:56:24Z</time>
      </trkpt>
      <trkpt lat="45.31911" lon="4.44782">
        <ele>1132</ele>
        <time>2022-03-21T14:57:01Z</time>
      </trkpt>
      <trkpt lat="45.31915" lon="4.44801">
        <ele>1133</ele>
        <time>2022-03-21T14:57:19Z</time>
      </trkpt>
      <trkpt lat="45.31911" lon="4.44827">
        <ele>1136</ele>
        <time>2022-03-21T14:57:44Z</time>
      </trkpt>
      <trkpt lat="45.31888" lon="4.44852">
        <ele>1139</ele>
        <time>2022-03-21T14:58:23Z</time>
      </trkpt>
      <trkpt lat="45.31838" lon="4.44898">
        <ele>1145</ele>
        <time>2022-03-21T14:59:42Z</time>
      </trkpt>
      <trkpt lat="45.31785" lon="4.44964">
        <ele>1150</ele>
        <time>2022-03-21T15:01:16Z</time>
      </trkpt>
      <trkpt lat="45.31738" lon="4.45026">
        <ele>1152</ele>
        <time>2022-03-21T15:02:42Z</time>
      </trkpt>
      <trkpt lat="45.31708" lon="4.4506">
        <ele>1155</ele>
        <time>2022-03-21T15:03:33Z</time>
      </trkpt>
      <trkpt lat="45.31687" lon="4.45091">
        <ele>1156</ele>
        <time>2022-03-21T15:04:14Z</time>
      </trkpt>
      <trkpt lat="45.31668" lon="4.4514">
        <ele>1155</ele>
        <time>2022-03-21T15:05:06Z</time>
      </trkpt>
      <trkpt lat="45.31648" lon="4.45174">
        <ele>1155</ele>
        <time>2022-03-21T15:05:48Z</time>
      </trkpt>
      <trkpt lat="45.31635" lon="4.45207">
        <ele>1154</ele>
        <time>2022-03-21T15:06:23Z</time>
      </trkpt>
      <trkpt lat="45.31603" lon="4.45266">
        <ele>1155</ele>
        <time>2022-03-21T15:07:33Z</time>
      </trkpt>
      <trkpt lat="45.31587" lon="4.45321">
        <ele>1154</ele>
        <time>2022-03-21T15:08:29Z</time>
      </trkpt>
      <trkpt lat="45.31575" lon="4.45339">
        <ele>1155</ele>
        <time>2022-03-21T15:08:52Z</time>
      </trkpt>
      <trkpt lat="45.3155" lon="4.45363">
        <ele>1156</ele>
        <time>2022-03-21T15:09:32Z</time>
      </trkpt>
      <trkpt lat="45.3154" lon="4.45381">
        <ele>1157</ele>
        <time>2022-03-21T15:09:54Z</time>
      </trkpt>
      <trkpt lat="45.31534" lon="4.45411">
        <ele>1156</ele>
        <time>2022-03-21T15:10:23Z</time>
      </trkpt>
      <trkpt lat="45.3153" lon="4.45417">
        <ele>1157</ele>
        <time>2022-03-21T15:10:31Z</time>
      </trkpt>
      <trkpt lat="45.31519" lon="4.45424">
        <ele>1158</ele>
        <time>2022-03-21T15:10:47Z</time>
      </trkpt>
      <trkpt lat="45.31482" lon="4.45476">
        <ele>1162</ele>
        <time>2022-03-21T15:11:57Z</time>
      </trkpt>
      <trkpt lat="45.31463" lon="4.45561">
        <ele>1159</ele>
        <time>2022-03-21T15:13:20Z</time>
      </trkpt>
      <trkpt lat="45.31423" lon="4.45663">
        <ele>1156</ele>
        <time>2022-03-21T15:15:10Z</time>
      </trkpt>
      <trkpt lat="45.31424" lon="4.45713">
        <ele>1153</ele>
        <time>2022-03-21T15:15:57Z</time>
      </trkpt>
      <trkpt lat="45.31424" lon="4.4574">
        <ele>1151</ele>
        <time>2022-03-21T15:16:22Z</time>
      </trkpt>
      <trkpt lat="45.31419" lon="4.45757">
        <ele>1151</ele>
        <time>2022-03-21T15:16:39Z</time>
      </trkpt>
      <trkpt lat="45.31425" lon="4.45895">
        <ele>1152</ele>
        <time>2022-03-21T15:18:49Z</time>
      </trkpt>
      <trkpt lat="45.31425" lon="4.45935">
        <ele>1152</ele>
        <time>2022-03-21T15:19:27Z</time>
      </trkpt>
      <trkpt lat="45.31468" lon="4.45897">
        <ele>1154</ele>
        <time>2022-03-21T15:20:34Z</time>
      </trkpt>
      <trkpt lat="45.3153" lon="4.45861">
        <ele>1153</ele>
        <time>2022-03-21T15:22:04Z</time>
      </trkpt>
      <trkpt lat="45.31557" lon="4.45856">
        <ele>1152</ele>
        <time>2022-03-21T15:22:40Z</time>
      </trkpt>
      <trkpt lat="45.31573" lon="4.4585">
        <ele>1151</ele>
        <time>2022-03-21T15:23:02Z</time>
      </trkpt>
      <trkpt lat="45.31693" lon="4.4577">
        <ele>1143</ele>
        <time>2022-03-21T15:25:59Z</time>
      </trkpt>
      <trkpt lat="45.31707" lon="4.45779">
        <ele>1144</ele>
        <time>2022-03-21T15:26:19Z</time>
      </trkpt>
      <trkpt lat="45.3172" lon="4.45796">
        <ele>1145</ele>
        <time>2022-03-21T15:26:43Z</time>
      </trkpt>
      <trkpt lat="45.31758" lon="4.45826">
        <ele>1149</ele>
        <time>2022-03-21T15:27:41Z</time>
      </trkpt>
      <trkpt lat="45.31775" lon="4.45826">
        <ele>1151</ele>
        <time>2022-03-21T15:28:04Z</time>
      </trkpt>
      <trkpt lat="45.31806" lon="4.45821">
        <ele>1153</ele>
        <time>2022-03-21T15:28:45Z</time>
      </trkpt>
      <trkpt lat="45.31817" lon="4.45845">
        <ele>1156</ele>
        <time>2022-03-21T15:29:12Z</time>
      </trkpt>
      <trkpt lat="45.31834" lon="4.45855">
        <ele>1158</ele>
        <time>2022-03-21T15:29:37Z</time>
      </trkpt>
      <trkpt lat="45.31875" lon="4.45849">
        <ele>1167</ele>
        <time>2022-03-21T15:30:32Z</time>
      </trkpt>
      <trkpt lat="45.319" lon="4.45842">
        <ele>1172</ele>
        <time>2022-03-21T15:31:06Z</time>
      </trkpt>
      <trkpt lat="45.31922" lon="4.45858">
        <ele>1176</ele>
        <time>2022-03-21T15:31:39Z</time>
      </trkpt>
      <trkpt lat="45.31981" lon="4.45881">
        <ele>1182</ele>
        <time>2022-03-21T15:33:00Z</time>
      </trkpt>
      <trkpt lat="45.31988" lon="4.45902">
        <ele>1182</ele>
        <time>2022-03-21T15:33:22Z</time>
      </trkpt>
      <trkpt lat="45.31961" lon="4.45971">
        <ele>1177</ele>
        <time>2022-03-21T15:34:36Z</time>
      </trkpt>
      <trkpt lat="45.3199" lon="4.45985">
        <ele>1177</ele>
        <time>2022-03-21T15:35:17Z</time>
      </trkpt>
      <trkpt lat="45.32072" lon="4.4599">
        <ele>1174</ele>
        <time>2022-03-21T15:37:07Z</time>
      </trkpt>
      <trkpt lat="45.32107" lon="4.46003">
        <ele>1169</ele>
        <time>2022-03-21T15:37:55Z</time>
      </trkpt>
      <trkpt lat="45.32128" lon="4.46036">
        <ele>1161</ele>
        <time>2022-03-21T15:38:37Z</time>
      </trkpt>
      <trkpt lat="45.3213" lon="4.46072">
        <ele>1154</ele>
        <time>2022-03-21T15:39:11Z</time>
      </trkpt>
      <trkpt lat="45.32148" lon="4.46108">
        <ele>1149</ele>
        <time>2022-03-21T15:39:52Z</time>
      </trkpt>
      <trkpt lat="45.32132" lon="4.46155">
        <ele>1148</ele>
        <time>2022-03-21T15:40:41Z</time>
      </trkpt>
      <trkpt lat="45.32127" lon="4.462">
        <ele>1146</ele>
        <time>2022-03-21T15:41:24Z</time>
      </trkpt>
      <trkpt lat="45.32111" lon="4.46241">
        <ele>1145</ele>
        <time>2022-03-21T15:42:08Z</time>
      </trkpt>
      <trkpt lat="45.32107" lon="4.46257">
        <ele>1145</ele>
        <time>2022-03-21T15:42:24Z</time>
      </trkpt>
      <trkpt lat="45.32115" lon="4.46246">
        <ele>1145</ele>
        <time>2022-03-21T15:42:38Z</time>
      </trkpt>
      <trkpt lat="45.32143" lon="4.46223">
        <ele>1145</ele>
        <time>2022-03-21T15:43:22Z</time>
      </trkpt>
      <trkpt lat="45.32194" lon="4.46173">
        <ele>1143</ele>
        <time>2022-03-21T15:44:44Z</time>
      </trkpt>
      <trkpt lat="45.32292" lon="4.46087">
        <ele>1139</ele>
        <time>2022-03-21T15:47:18Z</time>
      </trkpt>
      <trkpt lat="45.3235" lon="4.46008">
        <ele>1141</ele>
        <time>2022-03-21T15:49:05Z</time>
      </trkpt>
      <trkpt lat="45.32368" lon="4.45993">
        <ele>1140</ele>
        <time>2022-03-21T15:49:33Z</time>
      </trkpt>
      <trkpt lat="45.32416" lon="4.45941">
        <ele>1137</ele>
        <time>2022-03-21T15:50:53Z</time>
      </trkpt>
      <trkpt lat="45.32441" lon="4.45902">
        <ele>1135</ele>
        <time>2022-03-21T15:51:43Z</time>
      </trkpt>
      <trkpt lat="45.32463" lon="4.45853">
        <ele>1133</ele>
        <time>2022-03-21T15:52:38Z</time>
      </trkpt>
      <trkpt lat="45.32491" lon="4.4581">
        <ele>1129</ele>
        <time>2022-03-21T15:53:33Z</time>
      </trkpt>
      <trkpt lat="45.32538" lon="4.45718">
        <ele>1114</ele>
        <time>2022-03-21T15:55:19Z</time>
      </trkpt>
      <trkpt lat="45.32546" lon="4.45686">
        <ele>1110</ele>
        <time>2022-03-21T15:55:51Z</time>
      </trkpt>
      <trkpt lat="45.32559" lon="4.45643">
        <ele>1104</ele>
        <time>2022-03-21T15:56:35Z</time>
      </trkpt>
      <trkpt lat="45.32576" lon="4.45643">
        <ele>1100</ele>
        <time>2022-03-21T15:56:58Z</time>
      </trkpt>
      <trkpt lat="45.32609" lon="4.45648">
        <ele>1091</ele>
        <time>2022-03-21T15:57:42Z</time>
      </trkpt>
      <trkpt lat="45.32663" lon="4.4574">
        <ele>1078</ele>
        <time>2022-03-21T15:59:34Z</time>
      </trkpt>
      <trkpt lat="45.32705" lon="4.45731">
        <ele>1069</ele>
        <time>2022-03-21T16:00:31Z</time>
      </trkpt>
      <trkpt lat="45.32728" lon="4.45743">
        <ele>1066</ele>
        <time>2022-03-21T16:01:04Z</time>
      </trkpt>
      <trkpt lat="45.32751" lon="4.4574">
        <ele>1061</ele>
        <time>2022-03-21T16:01:35Z</time>
      </trkpt>
      <trkpt lat="45.32754" lon="4.45725">
        <ele>1060</ele>
        <time>2022-03-21T16:01:49Z</time>
      </trkpt>
      <trkpt lat="45.3276" lon="4.45711">
        <ele>1059</ele>
        <time>2022-03-21T16:02:05Z</time>
      </trkpt>
      <trkpt lat="45.3277" lon="4.45696">
        <ele>1057</ele>
        <time>2022-03-21T16:02:24Z</time>
      </trkpt>
      <trkpt lat="45.32791" lon="4.4565">
        <ele>1052</ele>
        <time>2022-03-21T16:03:16Z</time>
      </trkpt>
      <trkpt lat="45.32785" lon="4.45631">
        <ele>1053</ele>
        <time>2022-03-21T16:03:35Z</time>
      </trkpt>
      <trkpt lat="45.32787" lon="4.45599">
        <ele>1053</ele>
        <time>2022-03-21T16:04:05Z</time>
      </trkpt>
      <trkpt lat="45.32797" lon="4.45564">
        <ele>1051</ele>
        <time>2022-03-21T16:04:41Z</time>
      </trkpt>
      <trkpt lat="45.32804" lon="4.45526">
        <ele>1050</ele>
        <time>2022-03-21T16:05:17Z</time>
      </trkpt>
      <trkpt lat="45.32806" lon="4.45494">
        <ele>1049</ele>
        <time>2022-03-21T16:05:48Z</time>
      </trkpt>
      <trkpt lat="45.32811" lon="4.45476">
        <ele>1047</ele>
        <time>2022-03-21T16:06:06Z</time>
      </trkpt>
      <trkpt lat="45.32804" lon="4.45449">
        <ele>1046</ele>
        <time>2022-03-21T16:06:33Z</time>
      </trkpt>
      <trkpt lat="45.32757" lon="4.45386">
        <ele>1043</ele>
        <time>2022-03-21T16:07:59Z</time>
      </trkpt>
      <trkpt lat="45.3275" lon="4.45374">
        <ele>1042</ele>
        <time>2022-03-21T16:08:14Z</time>
      </trkpt>
      <trkpt lat="45.32729" lon="4.45324">
        <ele>1038</ele>
        <time>2022-03-21T16:09:08Z</time>
      </trkpt>
      <trkpt lat="45.32715" lon="4.45308">
        <ele>1038</ele>
        <time>2022-03-21T16:09:32Z</time>
      </trkpt>
      <trkpt lat="45.32712" lon="4.45299">
        <ele>1037</ele>
        <time>2022-03-21T16:09:42Z</time>
      </trkpt>
      <trkpt lat="45.3271" lon="4.45275">
        <ele>1035</ele>
        <time>2022-03-21T16:10:04Z</time>
      </trkpt>
      <trkpt lat="45.32691" lon="4.45243">
        <ele>1033</ele>
        <time>2022-03-21T16:10:44Z</time>
      </trkpt>
      <trkpt lat="45.32615" lon="4.45131">
        <ele>1025</ele>
        <time>2022-03-21T16:13:10Z</time>
      </trkpt>
      <trkpt lat="45.32586" lon="4.45085">
        <ele>1024</ele>
        <time>2022-03-21T16:14:08Z</time>
      </trkpt>
      <trkpt lat="45.32592" lon="4.45059">
        <ele>1023</ele>
        <time>2022-03-21T16:14:33Z</time>
      </trkpt>
      <trkpt lat="45.32625" lon="4.45026">
        <ele>1019</ele>
        <time>2022-03-21T16:15:27Z</time>
      </trkpt>
      <trkpt lat="45.32637" lon="4.45003">
        <ele>1017</ele>
        <time>2022-03-21T16:15:54Z</time>
      </trkpt>
      <trkpt lat="45.32653" lon="4.44951">
        <ele>1016</ele>
        <time>2022-03-21T16:16:47Z</time>
      </trkpt>
      <trkpt lat="45.32662" lon="4.44924">
        <ele>1015</ele>
        <time>2022-03-21T16:17:15Z</time>
      </trkpt>
      <trkpt lat="45.3267" lon="4.44908">
        <ele>1015</ele>
        <time>2022-03-21T16:17:34Z</time>
      </trkpt>
      <trkpt lat="45.32694" lon="4.44886">
        <ele>1012</ele>
        <time>2022-03-21T16:18:12Z</time>
      </trkpt>
      <trkpt lat="45.32705" lon="4.44867">
        <ele>1011</ele>
        <time>2022-03-21T16:18:35Z</time>
      </trkpt>
      <trkpt lat="45.32714" lon="4.44837">
        <ele>1010</ele>
        <time>2022-03-21T16:19:05Z</time>
      </trkpt>
      <trkpt lat="45.3273" lon="4.44769">
        <ele>1008</ele>
        <time>2022-03-21T16:20:13Z</time>
      </trkpt>
      <trkpt lat="45.32746" lon="4.44742">
        <ele>1005</ele>
        <time>2022-03-21T16:20:46Z</time>
      </trkpt>
      <trkpt lat="45.32791" lon="4.44696">
        <ele>999</ele>
        <time>2022-03-21T16:22:00Z</time>
      </trkpt>
      <trkpt lat="45.32846" lon="4.44622">
        <ele>993</ele>
        <time>2022-03-21T16:23:41Z</time>
      </trkpt>
      <trkpt lat="45.33075" lon="4.44337">
        <ele>974</ele>
        <time>2022-03-21T16:30:27Z</time>
      </trkpt>
      <trkpt lat="45.33082" lon="4.44325">
        <ele>974</ele>
        <time>2022-03-21T16:30:41Z</time>
      </trkpt>
      <trkpt lat="45.33093" lon="4.44288">
        <ele>973</ele>
        <time>2022-03-21T16:31:19Z</time>
      </trkpt>
      <trkpt lat="45.3311" lon="4.44209">
        <ele>970</ele>
        <time>2022-03-21T16:32:37Z</time>
      </trkpt>
      <trkpt lat="45.33116" lon="4.44193">
        <ele>969</ele>
        <time>2022-03-21T16:32:54Z</time>
      </trkpt>
      <trkpt lat="45.33138" lon="4.44165">
        <ele>967</ele>
        <time>2022-03-21T16:33:33Z</time>
      </trkpt>
      <trkpt lat="45.3317" lon="4.44129">
        <ele>962</ele>
        <time>2022-03-21T16:34:28Z</time>
      </trkpt>
      <trkpt lat="45.33187" lon="4.44101">
        <ele>958</ele>
        <time>2022-03-21T16:35:02Z</time>
      </trkpt>
      <trkpt lat="45.33201" lon="4.44065">
        <ele>955</ele>
        <time>2022-03-21T16:35:41Z</time>
      </trkpt>
      <trkpt lat="45.33233" lon="4.43937">
        <ele>947</ele>
        <time>2022-03-21T16:37:48Z</time>
      </trkpt>
      <trkpt lat="45.33242" lon="4.43889">
        <ele>945</ele>
        <time>2022-03-21T16:38:35Z</time>
      </trkpt>
      <trkpt lat="45.33251" lon="4.4387">
        <ele>943</ele>
        <time>2022-03-21T16:38:56Z</time>
      </trkpt>
      <trkpt lat="45.333" lon="4.43841">
        <ele>941</ele>
        <time>2022-03-21T16:40:07Z</time>
      </trkpt>
      <trkpt lat="45.33326" lon="4.43793">
        <ele>941</ele>
        <time>2022-03-21T16:41:04Z</time>
      </trkpt>
      <trkpt lat="45.33354" lon="4.43787">
        <ele>941</ele>
        <time>2022-03-21T16:41:42Z</time>
      </trkpt>
      <trkpt lat="45.33368" lon="4.43788">
        <ele>941</ele>
        <time>2022-03-21T16:42:01Z</time>
      </trkpt>
      <trkpt lat="45.33412" lon="4.438">
        <ele>942</ele>
        <time>2022-03-21T16:43:00Z</time>
      </trkpt>
      <trkpt lat="45.33409" lon="4.43798">
        <ele>941</ele>
        <time>2022-03-21T16:43:05Z</time>
      </trkpt>
      <trkpt lat="45.33412" lon="4.43764">
        <ele>941</ele>
        <time>2022-03-21T16:43:37Z</time>
      </trkpt>
      <trkpt lat="45.33412" lon="4.43753">
        <ele>941</ele>
        <time>2022-03-21T16:43:47Z</time>
      </trkpt>
      <trkpt lat="45.33417" lon="4.43715">
        <ele>943</ele>
        <time>2022-03-21T16:44:23Z</time>
      </trkpt>
      <trkpt lat="45.33438" lon="4.4359">
        <ele>949</ele>
        <time>2022-03-21T16:46:24Z</time>
      </trkpt>
      <trkpt lat="45.33495" lon="4.43477">
        <ele>953</ele>
        <time>2022-03-21T16:48:35Z</time>
      </trkpt>
      <trkpt lat="45.33524" lon="4.4339">
        <ele>955</ele>
        <time>2022-03-21T16:50:05Z</time>
      </trkpt>
      <trkpt lat="45.3355" lon="4.43338">
        <ele>956</ele>
        <time>2022-03-21T16:51:05Z</time>
      </trkpt>
      <trkpt lat="45.33569" lon="4.43296">
        <ele>956</ele>
        <time>2022-03-21T16:51:52Z</time>
      </trkpt>
      <trkpt lat="45.33573" lon="4.43278">
        <ele>956</ele>
        <time>2022-03-21T16:52:09Z</time>
      </trkpt>
      <trkpt lat="45.33575" lon="4.43212">
        <ele>957</ele>
        <time>2022-03-21T16:53:11Z</time>
      </trkpt>
      <trkpt lat="45.3358" lon="4.43164">
        <ele>960</ele>
        <time>2022-03-21T16:53:57Z</time>
      </trkpt>
      <trkpt lat="45.33598" lon="4.43053">
        <ele>959</ele>
        <time>2022-03-21T16:55:44Z</time>
      </trkpt>
      <trkpt lat="45.33669" lon="4.43084">
        <ele>963</ele>
        <time>2022-03-21T16:57:23Z</time>
      </trkpt>
      <trkpt lat="45.33689" lon="4.43096">
        <ele>965</ele>
        <time>2022-03-21T16:57:52Z</time>
      </trkpt>
      <trkpt lat="45.33697" lon="4.43098">
        <ele>965</ele>
        <time>2022-03-21T16:58:03Z</time>
      </trkpt>
      <trkpt lat="45.33703" lon="4.43097">
        <ele>966</ele>
        <time>2022-03-21T16:58:11Z</time>
      </trkpt>
      <trkpt lat="45.33722" lon="4.43089">
        <ele>967</ele>
        <time>2022-03-21T16:58:37Z</time>
      </trkpt>
      <trkpt lat="45.33748" lon="4.43091">
        <ele>968</ele>
        <time>2022-03-21T16:59:12Z</time>
      </trkpt>
      <trkpt lat="45.33767" lon="4.43087">
        <ele>969</ele>
        <time>2022-03-21T16:59:37Z</time>
      </trkpt>
      <trkpt lat="45.33791" lon="4.43073">
        <ele>970</ele>
        <time>2022-03-21T17:00:12Z</time>
      </trkpt>
      <trkpt lat="45.33896" lon="4.4299">
        <ele>970</ele>
        <time>2022-03-21T17:02:52Z</time>
      </trkpt>
      <trkpt lat="45.3393" lon="4.42973">
        <ele>971</ele>
        <time>2022-03-21T17:03:40Z</time>
      </trkpt>
      <trkpt lat="45.33941" lon="4.42965">
        <ele>971</ele>
        <time>2022-03-21T17:03:57Z</time>
      </trkpt>
      <trkpt lat="45.34039" lon="4.42837">
        <ele>968</ele>
        <time>2022-03-21T17:06:54Z</time>
      </trkpt>
      <trkpt lat="45.34063" lon="4.42808">
        <ele>969</ele>
        <time>2022-03-21T17:07:36Z</time>
      </trkpt>
      <trkpt lat="45.34071" lon="4.42795">
        <ele>969</ele>
        <time>2022-03-21T17:07:53Z</time>
      </trkpt>
      <trkpt lat="45.34077" lon="4.4278">
        <ele>969</ele>
        <time>2022-03-21T17:08:09Z</time>
      </trkpt>
      <trkpt lat="45.34078" lon="4.42742">
        <ele>968</ele>
        <time>2022-03-21T17:08:44Z</time>
      </trkpt>
      <trkpt lat="45.34081" lon="4.42727">
        <ele>969</ele>
        <time>2022-03-21T17:08:59Z</time>
      </trkpt>
      <trkpt lat="45.34116" lon="4.42609">
        <ele>966</ele>
        <time>2022-03-21T17:10:59Z</time>
      </trkpt>
      <trkpt lat="45.34131" lon="4.42575">
        <ele>965</ele>
        <time>2022-03-21T17:11:37Z</time>
      </trkpt>
      <trkpt lat="45.3415" lon="4.42542">
        <ele>965</ele>
        <time>2022-03-21T17:12:17Z</time>
      </trkpt>
      <trkpt lat="45.34164" lon="4.42511">
        <ele>964</ele>
        <time>2022-03-21T17:12:51Z</time>
      </trkpt>
      <trkpt lat="45.34181" lon="4.42434">
        <ele>967</ele>
        <time>2022-03-21T17:14:07Z</time>
      </trkpt>
      <trkpt lat="45.34185" lon="4.42405">
        <ele>969</ele>
        <time>2022-03-21T17:14:35Z</time>
      </trkpt>
      <trkpt lat="45.34182" lon="4.42367">
        <ele>970</ele>
        <time>2022-03-21T17:15:11Z</time>
      </trkpt>
      <trkpt lat="45.34177" lon="4.42342">
        <ele>971</ele>
        <time>2022-03-21T17:15:35Z</time>
      </trkpt>
      <trkpt lat="45.34166" lon="4.42313">
        <ele>972</ele>
        <time>2022-03-21T17:16:06Z</time>
      </trkpt>
      <trkpt lat="45.34157" lon="4.42296">
        <ele>972</ele>
        <time>2022-03-21T17:16:26Z</time>
      </trkpt>
      <trkpt lat="45.34151" lon="4.42258">
        <ele>974</ele>
        <time>2022-03-21T17:17:03Z</time>
      </trkpt>
      <trkpt lat="45.34154" lon="4.42247">
        <ele>975</ele>
        <time>2022-03-21T17:17:14Z</time>
      </trkpt>
      <trkpt lat="45.34136" lon="4.42226">
        <ele>974</ele>
        <time>2022-03-21T17:17:45Z</time>
      </trkpt>
      <trkpt lat="45.34074" lon="4.42095">
        <ele>973</ele>
        <time>2022-03-21T17:20:13Z</time>
      </trkpt>
    </trkseg>
  </trk>
</gpx>